sensor_id;sensor_type;location;lat;lon;timestamp;pressure;altitude;pressure_sealevel;temperature;humidity
57894;BME280;43710;47.460;19.034;2024-01-16T04:58:47;99726.41;;;3.16;62.96
57894;BME280;43710;47.460;19.034;2024-01-16T05:01:50;99726.41;;;3.16;62.96
57894;BME280;43710;47.460;19.034;2024-01-16T05:04:52;99731.59;;;2.67;64.34
57894;BME280;43710;47.460;19.034;2024-01-16T05:07:55;99737.19;;;2.70;64.67
57894;BME280;43710;47.460;19.034;2024-01-16T05:10:58;99737.50;;;2.74;62.98
57894;BME280;43710;47.460;19.034;2024-01-16T05:14:00;99734.28;;;2.89;71.17
57894;BME280;43710;47.460;19.034;2024-01-16T05:17:03;99746.75;;;2.93;63.22
57894;BME280;43710;47.460;19.034;2024-01-16T05:20:06;99753.81;;;2.88;64.13
57894;BME280;43710;47.460;19.034;2024-01-16T05:23:08;99757.22;;;2.83;62.50
57894;BME280;43710;47.460;19.034;2024-01-16T05:26:11;99763.31;;;2.83;65.94
57894;BME280;43710;47.460;19.034;2024-01-16T05:29:13;99769.84;;;2.98;64.27
57894;BME280;43710;47.460;19.034;2024-01-16T05:32:16;99772.19;;;2.94;61.62
57894;BME280;43710;47.460;19.034;2024-01-16T05:35:18;99783.22;;;2.86;62.18
57894;BME280;43710;47.460;19.034;2024-01-16T05:38:20;99784.97;;;2.80;62.51
57894;BME280;43710;47.460;19.034;2024-01-16T05:41:23;99787.41;;;2.82;62.72
57894;BME280;43710;47.460;19.034;2024-01-16T05:44:25;99796.66;;;2.85;61.92
57894;BME280;43710;47.460;19.034;2024-01-16T05:47:28;99792.81;;;2.92;62.14
57894;BME280;43710;47.460;19.034;2024-01-16T05:50:34;99802.31;;;2.88;63.15
57894;BME280;43710;47.460;19.034;2024-01-16T05:53:37;99807.47;;;3.00;61.91
57894;BME280;43710;47.460;19.034;2024-01-16T05:56:39;99808.59;;;3.04;61.51
57894;BME280;43710;47.460;19.034;2024-01-16T05:59:42;99818.50;;;2.92;62.59
57894;BME280;43710;47.460;19.034;2024-01-16T06:02:44;99810.97;;;2.83;61.43
57894;BME280;43710;47.460;19.034;2024-01-16T06:05:48;99816.69;;;2.75;61.82
57894;BME280;43710;47.460;19.034;2024-01-16T06:08:50;99821.78;;;2.99;62.65
57894;BME280;43710;47.460;19.034;2024-01-16T06:11:53;99826.28;;;2.98;74.64
57894;BME280;43710;47.460;19.034;2024-01-16T06:14:55;99831.81;;;2.80;62.01
57894;BME280;43710;47.460;19.034;2024-01-16T06:18:00;99837.44;;;2.83;62.37
57894;BME280;43710;47.460;19.034;2024-01-16T06:21:03;99852.78;;;2.81;65.27
57894;BME280;43710;47.460;19.034;2024-01-16T06:24:06;99846.28;;;2.72;62.07
57894;BME280;43710;47.460;19.034;2024-01-16T06:27:08;99852.84;;;2.70;63.91
57894;BME280;43710;47.460;19.034;2024-01-16T06:30:11;99854.59;;;2.81;60.89
57894;BME280;43710;47.460;19.034;2024-01-16T06:33:14;99858.94;;;2.70;60.60
57894;BME280;43710;47.460;19.034;2024-01-16T06:36:19;99874.19;;;2.63;61.30
57894;BME280;43710;47.460;19.034;2024-01-16T06:39:21;99876.25;;;2.61;61.41
57894;BME280;43710;47.460;19.034;2024-01-16T06:42:23;99885.94;;;2.39;62.22
57894;BME280;43710;47.460;19.034;2024-01-16T06:45:26;99882.75;;;2.53;62.11
57894;BME280;43710;47.460;19.034;2024-01-16T06:48:28;99886.44;;;2.52;62.44
57894;BME280;43710;47.460;19.034;2024-01-16T06:51:31;99904.25;;;2.57;62.54
57894;BME280;43710;47.460;19.034;2024-01-16T06:54:34;99896.78;;;2.71;60.93
57894;BME280;43710;47.460;19.034;2024-01-16T06:57:36;99905.97;;;2.51;60.87
57894;BME280;43710;47.460;19.034;2024-01-16T07:00:39;99912.75;;;2.59;62.92
57894;BME280;43710;47.460;19.034;2024-01-16T07:03:43;99909.97;;;2.82;61.61
57894;BME280;43710;47.460;19.034;2024-01-16T07:06:46;99922.13;;;2.67;59.28
57894;BME280;43710;47.460;19.034;2024-01-16T07:09:49;99924.25;;;2.81;59.82
57894;BME280;43710;47.460;19.034;2024-01-16T07:12:52;99924.47;;;2.80;58.49
57894;BME280;43710;47.460;19.034;2024-01-16T07:15:55;99938.25;;;2.65;59.55
57894;BME280;43710;47.460;19.034;2024-01-16T07:18:58;99936.97;;;2.68;59.01
57894;BME280;43710;47.460;19.034;2024-01-16T07:22:00;99946.38;;;2.75;60.11
57894;BME280;43710;47.460;19.034;2024-01-16T07:25:03;99959.47;;;2.82;59.22
57894;BME280;43710;47.460;19.034;2024-01-16T07:28:05;99966.84;;;2.97;58.82
57894;BME280;43710;47.460;19.034;2024-01-16T07:31:07;99967.88;;;2.96;59.56
57894;BME280;43710;47.460;19.034;2024-01-16T07:34:11;99978.66;;;3.06;58.42
57894;BME280;43710;47.460;19.034;2024-01-16T07:37:14;99983.38;;;3.21;68.29
57894;BME280;43710;47.460;19.034;2024-01-16T07:40:17;99986.44;;;3.13;60.20
57894;BME280;43710;47.460;19.034;2024-01-16T07:43:20;99994.78;;;3.21;58.47
57894;BME280;43710;47.460;19.034;2024-01-16T07:46:22;99996.06;;;3.36;61.42
57894;BME280;43710;47.460;19.034;2024-01-16T07:49:25;100003.91;;;3.47;59.04
57894;BME280;43710;47.460;19.034;2024-01-16T07:52:28;100004.25;;;3.34;57.25
57894;BME280;43710;47.460;19.034;2024-01-16T07:55:31;100003.84;;;3.42;57.25
57894;BME280;43710;47.460;19.034;2024-01-16T07:58:33;100016.78;;;3.39;57.96
57894;BME280;43710;47.460;19.034;2024-01-16T08:01:35;100010.91;;;3.53;58.18
57894;BME280;43710;47.460;19.034;2024-01-16T08:04:38;100020.06;;;3.46;57.41
57894;BME280;43710;47.460;19.034;2024-01-16T08:07:44;100025.69;;;3.49;57.09
57894;BME280;43710;47.460;19.034;2024-01-16T08:10:46;100030.59;;;3.58;58.10
57894;BME280;43710;47.460;19.034;2024-01-16T08:13:49;100036.84;;;3.68;59.82
57894;BME280;43710;47.460;19.034;2024-01-16T08:16:51;100035.16;;;3.62;56.18
57894;BME280;43710;47.460;19.034;2024-01-16T08:19:53;100033.44;;;3.73;56.82
57894;BME280;43710;47.460;19.034;2024-01-16T08:22:56;100042.28;;;3.79;60.03
57894;BME280;43710;47.460;19.034;2024-01-16T08:25:58;100051.34;;;3.83;55.32
57894;BME280;43710;47.460;19.034;2024-01-16T08:29:01;100047.81;;;3.77;55.50
57894;BME280;43710;47.460;19.034;2024-01-16T08:32:03;100044.28;;;3.88;55.83
57894;BME280;43710;47.460;19.034;2024-01-16T08:35:06;100066.03;;;3.90;53.88
57894;BME280;43710;47.460;19.034;2024-01-16T08:38:09;100060.44;;;3.87;53.54
57894;BME280;43710;47.460;19.034;2024-01-16T08:41:11;100061.06;;;3.94;55.18
57894;BME280;43710;47.460;19.034;2024-01-16T08:44:14;100073.47;;;4.10;56.97
57894;BME280;43710;47.460;19.034;2024-01-16T08:47:17;100075.91;;;4.12;52.95
57894;BME280;43710;47.460;19.034;2024-01-16T08:50:19;100070.59;;;4.12;53.33
57894;BME280;43710;47.460;19.034;2024-01-16T08:53:22;100073.56;;;4.15;53.90
57894;BME280;43710;47.460;19.034;2024-01-16T08:56:25;100073.38;;;4.22;53.74
57894;BME280;43710;47.460;19.034;2024-01-16T08:59:28;100068.47;;;4.31;52.08
57894;BME280;43710;47.460;19.034;2024-01-16T09:02:31;100070.69;;;4.39;52.11
57894;BME280;43710;47.460;19.034;2024-01-16T09:05:37;100090.25;;;4.33;51.55
57894;BME280;43710;47.460;19.034;2024-01-16T09:08:43;100088.06;;;4.30;51.21
57894;BME280;43710;47.460;19.034;2024-01-16T09:11:46;100093.16;;;4.31;50.94
57894;BME280;43710;47.460;19.034;2024-01-16T09:14:49;100097.78;;;4.41;50.59
57894;BME280;43710;47.460;19.034;2024-01-16T09:17:51;100101.06;;;4.48;50.00
57894;BME280;43710;47.460;19.034;2024-01-16T09:20:54;100093.63;;;4.50;49.93
57894;BME280;43710;47.460;19.034;2024-01-16T09:23:57;100090.75;;;4.52;51.76
57894;BME280;43710;47.460;19.034;2024-01-16T09:27:00;100085.44;;;4.52;49.16
57894;BME280;43710;47.460;19.034;2024-01-16T09:30:04;100087.34;;;4.56;56.92
57894;BME280;43710;47.460;19.034;2024-01-16T09:33:06;100090.56;;;4.58;50.07
57894;BME280;43710;47.460;19.034;2024-01-16T09:36:09;100085.88;;;4.65;49.01
57894;BME280;43710;47.460;19.034;2024-01-16T09:39:12;100083.69;;;4.62;49.09
57894;BME280;43710;47.460;19.034;2024-01-16T09:42:18;100081.97;;;4.73;48.65
57894;BME280;43710;47.460;19.034;2024-01-16T09:45:21;100094.69;;;4.71;49.09
57894;BME280;43710;47.460;19.034;2024-01-16T09:48:24;100095.50;;;4.71;48.08
57894;BME280;43710;47.460;19.034;2024-01-16T09:51:29;100089.50;;;4.81;48.91
57894;BME280;43710;47.460;19.034;2024-01-16T09:54:31;100081.56;;;4.86;51.78
57894;BME280;43710;47.460;19.034;2024-01-16T09:57:34;100088.91;;;5.01;48.97
57894;BME280;43710;47.460;19.034;2024-01-16T10:00:43;100097.22;;;5.10;50.92
57894;BME280;43710;47.460;19.034;2024-01-16T10:03:46;100091.72;;;5.16;47.26
57894;BME280;43710;47.460;19.034;2024-01-16T10:06:49;100079.28;;;5.22;47.50
57894;BME280;43710;47.460;19.034;2024-01-16T10:09:57;100097.09;;;5.22;49.99
57894;BME280;43710;47.460;19.034;2024-01-16T10:13:00;100083.72;;;5.16;46.94
57894;BME280;43710;47.460;19.034;2024-01-16T10:16:03;100085.34;;;5.17;48.51
57894;BME280;43710;47.460;19.034;2024-01-16T10:19:06;100083.34;;;5.03;47.50
57894;BME280;43710;47.460;19.034;2024-01-16T10:22:08;100087.22;;;5.17;47.51
57894;BME280;43710;47.460;19.034;2024-01-16T10:25:12;100093.81;;;5.41;49.40
57894;BME280;43710;47.460;19.034;2024-01-16T10:28:19;100099.91;;;5.37;45.86
57894;BME280;43710;47.460;19.034;2024-01-16T10:31:29;100094.53;;;5.32;47.60
57894;BME280;43710;47.460;19.034;2024-01-16T10:34:33;100098.44;;;4.97;48.45
57894;BME280;43710;47.460;19.034;2024-01-16T10:37:49;100103.66;;;4.87;46.24
57894;BME280;43710;47.460;19.034;2024-01-16T10:41:12;100096.88;;;5.01;51.08
57894;BME280;43710;47.460;19.034;2024-01-16T10:44:15;100100.22;;;5.13;46.29
57894;BME280;43710;47.460;19.034;2024-01-16T10:47:18;100095.88;;;5.07;46.21
57894;BME280;43710;47.460;19.034;2024-01-16T10:50:20;100101.41;;;5.28;46.27
57894;BME280;43710;47.460;19.034;2024-01-16T10:53:25;100100.75;;;5.15;46.08
57894;BME280;43710;47.460;19.034;2024-01-16T10:56:27;100083.78;;;5.22;46.50
57894;BME280;43710;47.460;19.034;2024-01-16T10:59:40;100083.59;;;5.28;50.44
57894;BME280;43710;47.460;19.034;2024-01-16T11:03:10;100096.97;;;5.38;47.81
57894;BME280;43710;47.460;19.034;2024-01-16T11:06:16;100091.13;;;5.36;45.94
57894;BME280;43710;47.460;19.034;2024-01-16T11:09:20;100086.81;;;5.30;49.24
57894;BME280;43710;47.460;19.034;2024-01-16T11:12:23;100089.41;;;5.25;48.49
57894;BME280;43710;47.460;19.034;2024-01-16T11:15:28;100078.03;;;5.30;47.61
57894;BME280;43710;47.460;19.034;2024-01-16T11:18:31;100084.84;;;5.53;50.82
57894;BME280;43710;47.460;19.034;2024-01-16T11:21:36;100079.25;;;5.49;46.49
57894;BME280;43710;47.460;19.034;2024-01-16T11:24:39;100071.19;;;5.39;45.85
57894;BME280;43710;47.460;19.034;2024-01-16T11:27:43;100081.31;;;5.42;46.13
57894;BME280;43710;47.460;19.034;2024-01-16T11:30:47;100076.56;;;5.44;45.87
57894;BME280;43710;47.460;19.034;2024-01-16T11:33:50;100079.44;;;5.42;45.69
57894;BME280;43710;47.460;19.034;2024-01-16T11:36:52;100084.25;;;5.46;53.57
57894;BME280;43710;47.460;19.034;2024-01-16T11:47:02;100083.47;;;5.45;45.90
57894;BME280;43710;47.460;19.034;2024-01-16T11:50:10;100081.22;;;5.32;46.72
57894;BME280;43710;47.460;19.034;2024-01-16T11:53:34;100089.75;;;5.34;45.15
57894;BME280;43710;47.460;19.034;2024-01-16T12:00:19;100089.84;;;5.44;46.90
57894;BME280;43710;47.460;19.034;2024-01-16T12:03:23;100081.22;;;5.32;44.62
57894;BME280;43710;47.460;19.034;2024-01-16T12:06:37;100077.56;;;5.38;46.71
57894;BME280;43710;47.460;19.034;2024-01-16T12:09:40;100083.44;;;5.40;45.31
57894;BME280;43710;47.460;19.034;2024-01-16T12:12:43;100075.38;;;5.30;45.94
57894;BME280;43710;47.460;19.034;2024-01-16T12:15:45;100077.84;;;5.41;45.20
57894;BME280;43710;47.460;19.034;2024-01-16T12:18:48;100092.25;;;5.46;48.59
57894;BME280;43710;47.460;19.034;2024-01-16T12:21:52;100077.66;;;5.48;44.91
57894;BME280;43710;47.460;19.034;2024-01-16T12:24:57;100080.97;;;5.65;46.00
57894;BME280;43710;47.460;19.034;2024-01-16T12:28:03;100080.97;;;5.65;43.13
57894;BME280;43710;47.460;19.034;2024-01-16T12:31:05;100070.19;;;5.82;44.27
57894;BME280;43710;47.460;19.034;2024-01-16T12:34:08;100077.13;;;5.83;43.73
57894;BME280;43710;47.460;19.034;2024-01-16T12:37:12;100082.75;;;5.92;43.08
57894;BME280;43710;47.460;19.034;2024-01-16T12:40:15;100079.38;;;6.02;45.55
57894;BME280;43710;47.460;19.034;2024-01-16T12:43:17;100083.44;;;6.09;47.70
57894;BME280;43710;47.460;19.034;2024-01-16T12:46:20;100083.00;;;6.28;45.61
57894;BME280;43710;47.460;19.034;2024-01-16T12:49:23;100079.03;;;6.35;46.73
57894;BME280;43710;47.460;19.034;2024-01-16T12:52:27;100070.16;;;6.15;42.58
57894;BME280;43710;47.460;19.034;2024-01-16T12:55:36;100083.97;;;6.11;42.16
57894;BME280;43710;47.460;19.034;2024-01-16T12:58:39;100084.13;;;5.95;42.09
57894;BME280;43710;47.460;19.034;2024-01-16T13:01:44;100080.50;;;5.74;41.58
57894;BME280;43710;47.460;19.034;2024-01-16T13:05:00;100076.06;;;5.84;43.49
57894;BME280;43710;47.460;19.034;2024-01-16T13:08:05;100083.25;;;5.89;42.38
57894;BME280;43710;47.460;19.034;2024-01-16T13:11:12;100083.63;;;5.65;41.78
57894;BME280;43710;47.460;19.034;2024-01-16T13:14:14;100078.31;;;5.65;40.39
57894;BME280;43710;47.460;19.034;2024-01-16T13:17:16;100091.09;;;5.69;40.24
57894;BME280;43710;47.460;19.034;2024-01-16T13:20:18;100081.53;;;5.73;41.79
57894;BME280;43710;47.460;19.034;2024-01-16T13:23:23;100083.34;;;5.94;41.24
57894;BME280;43710;47.460;19.034;2024-01-16T13:26:29;100088.06;;;5.92;45.60
57894;BME280;43710;47.460;19.034;2024-01-16T13:29:31;100087.06;;;5.93;41.79
57894;BME280;43710;47.460;19.034;2024-01-16T13:32:37;100086.44;;;5.86;39.47
57894;BME280;43710;47.460;19.034;2024-01-16T13:35:42;100087.53;;;5.90;40.46
57894;BME280;43710;47.460;19.034;2024-01-16T13:38:44;100088.37;;;5.96;41.43
57894;BME280;43710;47.460;19.034;2024-01-16T13:41:47;100085.91;;;5.89;39.93
57894;BME280;43710;47.460;19.034;2024-01-16T13:44:49;100090.44;;;5.88;39.20
57894;BME280;43710;47.460;19.034;2024-01-16T13:47:54;100092.59;;;5.92;40.98
57894;BME280;43710;47.460;19.034;2024-01-16T13:50:57;100093.09;;;5.88;38.30
57894;BME280;43710;47.460;19.034;2024-01-16T13:53:59;100093.91;;;5.89;50.93
57894;BME280;43710;47.460;19.034;2024-01-16T13:57:01;100098.22;;;5.95;38.60
57894;BME280;43710;47.460;19.034;2024-01-16T14:00:12;100104.41;;;6.06;39.08
57894;BME280;43710;47.460;19.034;2024-01-16T14:03:19;100100.22;;;6.15;39.74
57894;BME280;43710;47.460;19.034;2024-01-16T14:06:21;100097.81;;;6.14;41.33
57894;BME280;43710;47.460;19.034;2024-01-16T14:09:44;100101.28;;;6.14;37.25
57894;BME280;43710;47.460;19.034;2024-01-16T14:12:49;100096.41;;;6.01;39.52
57894;BME280;43710;47.460;19.034;2024-01-16T14:15:52;100097.44;;;5.95;38.01
57894;BME280;43710;47.460;19.034;2024-01-16T14:18:54;100099.62;;;6.03;46.15
57894;BME280;43710;47.460;19.034;2024-01-16T14:21:57;100102.03;;;6.04;38.51
57894;BME280;43710;47.460;19.034;2024-01-16T14:24:59;100107.63;;;6.08;37.91
57894;BME280;43710;47.460;19.034;2024-01-16T14:28:03;100115.16;;;6.16;40.34
57894;BME280;43710;47.460;19.034;2024-01-16T14:31:06;100120.75;;;6.20;43.54
57894;BME280;43710;47.460;19.034;2024-01-16T14:34:11;100117.53;;;6.18;40.72
57894;BME280;43710;47.460;19.034;2024-01-16T14:37:15;100121.78;;;6.19;40.49
57894;BME280;43710;47.460;19.034;2024-01-16T14:40:19;100122.03;;;6.12;38.85
57894;BME280;43710;47.460;19.034;2024-01-16T14:43:27;100127.31;;;6.07;38.69
57894;BME280;43710;47.460;19.034;2024-01-16T14:46:30;100125.81;;;5.89;41.30
57894;BME280;43710;47.460;19.034;2024-01-16T14:49:32;100119.19;;;5.92;41.05
57894;BME280;43710;47.460;19.034;2024-01-16T14:52:36;100122.34;;;5.83;39.39
57894;BME280;43710;47.460;19.034;2024-01-16T14:55:38;100131.16;;;5.89;38.69
57894;BME280;43710;47.460;19.034;2024-01-16T14:58:40;100125.63;;;5.96;38.06
57894;BME280;43710;47.460;19.034;2024-01-16T15:01:43;100131.78;;;5.96;40.10
57894;BME280;43710;47.460;19.034;2024-01-16T15:04:47;100138.87;;;5.91;38.67
57894;BME280;43710;47.460;19.034;2024-01-16T15:07:50;100144.78;;;5.93;39.65
57894;BME280;43710;47.460;19.034;2024-01-16T15:10:56;100147.75;;;5.96;50.43
57894;BME280;43710;47.460;19.034;2024-01-16T15:14:01;100143.62;;;5.83;39.37
57894;BME280;43710;47.460;19.034;2024-01-16T15:17:04;100132.94;;;5.78;40.16
57894;BME280;43710;47.460;19.034;2024-01-16T15:20:07;100134.31;;;5.86;39.44
57894;BME280;43710;47.460;19.034;2024-01-16T15:23:12;100134.44;;;5.96;40.17
57894;BME280;43710;47.460;19.034;2024-01-16T15:26:14;100136.88;;;6.03;54.93
57894;BME280;43710;47.460;19.034;2024-01-16T15:29:23;100135.53;;;6.00;40.94
57894;BME280;43710;47.460;19.034;2024-01-16T15:32:25;100138.25;;;6.10;54.26
57894;BME280;43710;47.460;19.034;2024-01-16T15:35:28;100133.41;;;6.02;49.67
57894;BME280;43710;47.460;19.034;2024-01-16T15:38:31;100126.47;;;6.01;47.62
57894;BME280;43710;47.460;19.034;2024-01-16T15:41:34;100127.88;;;5.77;43.70
57894;BME280;43710;47.460;19.034;2024-01-16T15:44:36;100138.00;;;5.80;54.02
57894;BME280;43710;47.460;19.034;2024-01-16T15:47:39;100140.91;;;5.78;55.21
57894;BME280;43710;47.460;19.034;2024-01-16T15:50:41;100141.13;;;5.72;44.62
57894;BME280;43710;47.460;19.034;2024-01-16T15:53:44;100142.13;;;5.65;50.56
57894;BME280;43710;47.460;19.034;2024-01-16T15:56:46;100141.09;;;5.67;45.70
57894;BME280;43710;47.460;19.034;2024-01-16T15:59:53;100153.19;;;5.52;44.69
57894;BME280;43710;47.460;19.034;2024-01-16T16:02:56;100158.16;;;5.44;48.55
57894;BME280;43710;47.460;19.034;2024-01-16T16:06:00;100150.41;;;5.37;61.05
57894;BME280;43710;47.460;19.034;2024-01-16T16:09:03;100159.09;;;5.32;58.91
57894;BME280;43710;47.460;19.034;2024-01-16T16:12:07;100171.38;;;5.33;49.84
57894;BME280;43710;47.460;19.034;2024-01-16T16:15:09;100180.63;;;5.31;45.14
57894;BME280;43710;47.460;19.034;2024-01-16T16:18:11;100181.72;;;5.35;43.60
57894;BME280;43710;47.460;19.034;2024-01-16T16:21:14;100196.28;;;5.27;67.18
57894;BME280;43710;47.460;19.034;2024-01-16T16:24:16;100186.37;;;5.23;72.71
57894;BME280;43710;47.460;19.034;2024-01-16T16:27:24;100186.56;;;5.16;51.55
57894;BME280;43710;47.460;19.034;2024-01-16T16:30:27;100192.19;;;5.19;47.54
57894;BME280;43710;47.460;19.034;2024-01-16T16:33:31;100199.22;;;5.04;46.63
57894;BME280;43710;47.460;19.034;2024-01-16T16:36:34;100203.53;;;4.88;46.13
